Time;durP1;ratioP1;P1;durP2;ratioP2;P2;SDS_P1;SDS_P2;PMS_P1;PMS_P2;Temp;Humidity;BMP_temperature;BMP_pressure;BME280_temperature;BME280_humidity;BME280_pressure;Samples;Min_cycle;Max_cycle;Signal;HPM_P1;HPM_P2
2021/04/01 00:00:25;;;;;;;;;;;;;;;;;;5049483;28;19913;-94
2021/04/01 00:02:51;;;;;;;;;;;;;;;;;;5049965;28;19913;-93
2021/04/01 00:05:20;;;;;;;;;;;;;;;;;;5068045;28;19925;-94
2021/04/01 00:07:55;;;;;;;;;;;;;;;;;;5053036;28;20636;-94
2021/04/01 00:10:25;;;;;;;;;;;;;;;;;;5059760;28;19921;-94
2021/04/01 00:15:41;;;;;;;;;;;;;;;;;;5066686;28;19967;-93
2021/04/01 00:18:18;;;;;;;;;;;;;;;;;;5045834;28;19967;-94
2021/04/01 00:20:53;;;;;;;;;;;;;;;;;;5055831;28;19912;-95
2021/04/01 00:23:34;;;;;;;;;;;;;;;;;;5069078;28;19909;-93
2021/04/01 00:26:01;;;;;;;;;;;;;;;;;;5048190;28;19976;-95
2021/04/01 00:28:27;;;;;;;;;;;;;;;;;;5050952;28;19916;-94
2021/04/01 00:31:09;;;;;;;;;;;;;;;;;;5056153;28;19914;-96
2021/04/01 00:33:39;;;;;;;;;;;;;;;;;;5060433;28;19931;-94
2021/04/01 00:44:38;;;;;;;;;;;;;;;;;;5612385;23;19925;-95
2021/04/01 00:52:40;;;;;;;;;;;;;;;;;;5683851;23;19948;-94
2021/04/01 00:55:07;;;;;;;;;;;;;;;;;;5051713;28;19949;-93
2021/04/01 00:57:46;;;;;;;;;;;;;;;;;;5054512;28;19921;-94
2021/04/01 01:00:25;;;;;;;;;;;;;;;;;;5049684;28;19920;-93
2021/04/01 01:03:18;;;;;;;;;;;;;;;;;;5048391;28;19917;-93
2021/04/01 01:08:41;;;;;;;;;;;;;;;;;;5054191;28;19916;-92
2021/04/01 01:11:11;;;;;;;;;;;;;;;;;;5051534;28;19898;-94
2021/04/01 01:13:41;;;;;;;;;;;;;;;;;;5035765;28;19944;-94
2021/04/01 01:16:15;;;;;;;;;;;;;;;;;;5035904;28;19924;-93
2021/04/01 01:21:28;;;;;;;;;;;;;;;;;;5058248;28;19940;-94
2021/04/01 01:29:23;;;;;;;;;;;;;;;;;;5095090;28;19915;-92
2021/04/01 05:40:45;;;;;;;;;;;;;;;;;;5077830;28;19955;-91
2021/04/01 05:43:19;;;;;;;;;;;;;;;;;;5062555;28;19962;-92
2021/04/01 05:45:49;;;;;;;;;;;;;;;;;;5059910;28;19965;-92
2021/04/01 05:48:28;;;;;;;;;;;;;;;;;;5055798;28;19960;-92
2021/04/01 05:51:45;;;;;;;;;;;;;;;;;;5052679;28;19919;-92
2021/04/01 05:57:05;;;;;;;;;;;;;;;;;;;;;
2021/04/01 05:59:28;;;;;;;;;;;;;;;;;;5065451;28;19956;-92
2021/04/01 06:02:03;;;;;;;;;;;;;;;;;;5047322;28;20015;-92
2021/04/01 06:04:37;;;;;;;;;;;;;;;;;;5047804;28;19913;-92
2021/04/01 06:07:13;;;;;;;;;;;;;;;;;;5045916;28;19923;-92
2021/04/01 06:09:45;;;;;;;;;;;;;;;;;;5042812;28;19925;-92
2021/04/01 06:12:13;;;;;;;;;;;;;;;;;;5053327;28;19909;-93
2021/04/01 06:14:40;;;;;;;;;;;;;;;;;;5053576;28;19913;-92
2021/04/01 06:17:06;;;;;;;;;;;;;;;;;;5060500;28;19912;-91
2021/04/01 06:19:32;;;;;;;;;;;;;;;;;;5053442;28;19920;-91
2021/04/01 06:21:59;;;;;;;;;;;;;;;;;;5050597;28;19953;-91
2021/04/01 06:24:26;;;;;;;;;;;;;;;;;;5052106;28;20418;-91
2021/04/01 06:26:54;;;;;;;;;;;;;;;;;;5049522;28;19923;-91
2021/04/01 06:29:24;;;;;;;;;;;;;;;;;;5067642;28;19916;-90
2021/04/01 06:31:50;;;;;;;;;;;;;;;;;;5050547;28;20008;-92
2021/04/01 06:34:17;;;;;;;;;;;;;;;;;;5049308;28;19923;-92
2021/04/01 06:36:43;;;;;;;;;;;;;;;;;;5048532;28;19920;-92
2021/04/01 06:39:09;;;;;;;;;;;;;;;;;;5057080;28;20403;-92
2021/04/01 06:41:35;;;;;;;;;;;;;;;;;;5052407;28;19917;-92
2021/04/01 06:44:03;;;;;;;;;;;;;;;;;;5051630;28;20437;-92
2021/04/01 06:46:31;;;;;;;;;;;;;;;;;;5052655;28;19924;-92
2021/04/01 06:49:22;;;;;;;;;;;;;;;;;;5051771;28;20640;-92
2021/04/01 06:51:49;;;;;;;;;;;;;;;;;;5054816;28;19917;-90
2021/04/01 06:54:19;;;;;;;;;;;;;;;;;;5044945;28;21476;-90
2021/04/01 06:59:38;;;;;;;;;;;;;;;;;;;;;
2021/04/01 07:01:57;;;;;;;;;;;;;;;;;;;;;
2021/04/01 07:04:15;;;;;;;;;;;;;;;;;;5041964;28;19963;-89
2021/04/01 07:06:44;;;;;;;;;;;;;;;;;;5053619;28;19912;-91
2021/04/01 07:09:13;;;;;;;;;;;;;;;;;;5054483;28;19924;-92
2021/04/01 07:11:41;;;;;;;;;;;;;;;;;;5041269;28;19913;-91
2021/04/01 07:14:08;;;;;;;;;;;;;;;;;;5047279;28;19913;-91
2021/04/01 07:16:42;;;;;;;;;;;;;;;;;;5042418;28;19916;-88
2021/04/01 07:46:28;;;;;;;;;;;;;;;;;;5062079;28;19932;-90
2021/04/01 07:48:57;;;;;;;;;;;;;;;;;;5053224;28;20398;-91
2021/04/01 07:51:43;;;;;;;;;;;;;;;;;;5054507;28;19916;-92
2021/04/01 07:54:10;;;;;;;;;;;;;;;;;;5051366;28;19960;-91
2021/04/01 07:57:03;;;;;;;;;;;;;;;;;;5049947;28;19920;-90
2021/04/01 07:59:38;;;;;;;;;;;;;;;;;;5043039;28;19923;-89
2021/04/01 08:02:30;;;;;;;;;;;;;;;;;;;;;
2021/04/01 08:04:49;;;;;;;;;;;;;;;;;;5060276;28;19946;-93
2021/04/01 08:07:15;;;;;;;;;;;;;;;;;;5043300;28;19916;-91
2021/04/01 08:09:42;;;;;;;;;;;;;;;;;;5053140;28;19920;-92
2021/04/01 08:12:08;;;;;;;;;;;;;;;;;;5051576;28;20352;-91
2021/04/01 08:14:35;;;;;;;;;;;;;;;;;;5041662;28;20437;-91
2021/04/01 08:17:03;;;;;;;;;;;;;;;;;;;;;
2021/04/01 08:19:28;;;;;;;;;;;;;;;;;;5061783;28;20100;-90
2021/04/01 08:21:54;;;;;;;;;;;;;;;;;;5046566;28;19979;-92
2021/04/01 08:24:24;;;;;;;;;;;;;;;;;;;;;
2021/04/01 08:27:03;;;;;;;;;;;;;;;;;;5057499;28;19926;-91
2021/04/01 08:32:45;;;;;;;;;;;;;;;;;;5059122;28;19920;-91
2021/04/01 08:35:11;;;;;;;;;;;;;;;;;;5041994;28;20019;-91
2021/04/01 08:37:37;;;;;;;;;;;;;;;;;;5038256;28;19928;-91
2021/04/01 08:40:03;;;;;;;;;;;;;;;;;;5044746;28;20007;-93
2021/04/01 08:42:29;;;;;;;;;;;;;;;;;;5048886;28;19948;-92
2021/04/01 08:44:56;;;;;;;;;;;;;;;;;;5037359;28;19914;-92
2021/04/01 08:47:22;;;;;;;;;;;;;;;;;;5053989;28;19921;-90
2021/04/01 08:49:48;;;;;;;;;;;;;;;;;;5034034;28;19932;-91
2021/04/01 08:52:14;;;;;;;;;;;;;;;;;;5039296;28;19976;-90
2021/04/01 08:54:41;;;;;;;;;;;;;;;;;;5037476;28;19920;-91
2021/04/01 08:57:07;;;;;;;;;;;;;;;;;;5053122;28;19930;-92
2021/04/01 08:59:33;;;;;;;;;;;;;;;;;;5038908;28;19974;-91
2021/04/01 09:04:50;;;;;;;;;;;;;;;;;;5036478;28;20350;-92
2021/04/01 09:07:16;;;;;;;;;;;;;;;;;;5041005;28;19971;-91
2021/04/01 09:09:45;;;;;;;;;;;;;;;;;;5038195;28;19913;-92
2021/04/01 09:12:14;;;;;;;;;;;;;;;;;;5037362;28;20453;-90
2021/04/01 09:14:49;;;;;;;;;;;;;;;;;;5035197;28;19924;-90
2021/04/01 09:17:16;;;;;;;;;;;;;;;;;;5049222;28;19917;-90
2021/04/01 09:19:42;;;;;;;;;;;;;;;;;;5036465;28;20421;-91
2021/04/01 09:22:08;;;;;;;;;;;;;;;;;;5040547;28;19943;-91
2021/04/01 09:24:36;;;;;;;;;;;;;;;;;;5038689;28;19917;-92
2021/04/01 09:27:02;;;;;;;;;;;;;;;;;;5043634;28;19966;-92
2021/04/01 09:29:29;;;;;;;;;;;;;;;;;;5038302;28;19917;-92
2021/04/01 09:31:58;;;;;;;;;;;;;;;;;;5039049;28;20282;-93
2021/04/01 09:34:25;;;;;;;;;;;;;;;;;;5046018;28;19924;-91
2021/04/01 09:36:51;;;;;;;;;;;;;;;;;;5047377;28;19917;-92
2021/04/01 09:41:52;;;;;;;;;;;;;;;;;;5030263;28;19917;-91
2021/04/01 09:44:18;;;;;;;;;;;;;;;;;;5026404;28;19917;-92
2021/04/01 09:46:44;;;;;;;;;;;;;;;;;;5025595;28;19913;-91
2021/04/01 09:49:10;;;;;;;;;;;;;;;;;;5028689;28;19924;-91
2021/04/01 09:51:37;;;;;;;;;;;;;;;;;;5023296;28;19924;-91
2021/04/01 09:54:03;;;;;;;;;;;;;;;;;;5019973;28;19945;-91
2021/04/01 09:56:30;;;;;;;;;;;;;;;;;;5020084;28;19920;-92
2021/04/01 09:58:56;;;;;;;;;;;;;;;;;;5023032;28;19917;-91
2021/04/01 10:01:35;;;;;;;;;;;;;;;;;;5020819;28;19921;-89
2021/04/01 10:04:02;;;;;;;;;;;;;;;;;;5017681;28;19913;-91
2021/04/01 10:06:34;;;;;;;;;;;;;;;;;;5017362;28;20489;-92
2021/04/01 10:09:00;;;;;;;;;;;;;;;;;;5015833;28;19922;-92
2021/04/01 10:11:27;;;;;;;;;;;;;;;;;;5022189;28;20007;-92
2021/04/01 10:13:54;;;;;;;;;;;;;;;;;;5021064;28;20428;-90
2021/04/01 10:16:23;;;;;;;;;;;;;;;;;;5027584;28;19917;-93
2021/04/01 10:18:49;;;;;;;;;;;;;;;;;;5022208;28;19929;-94
2021/04/01 10:21:15;;;;;;;;;;;;;;;;;;5024253;28;19980;-93
2021/04/01 10:23:41;;;;;;;;;;;;;;;;;;5020328;28;19914;-93
2021/04/01 10:31:28;;;;;;;;;;;;;;;;;;5023170;28;19914;-91
2021/04/01 10:36:41;;;;;;;;;;;;;;;;;;5015154;28;19947;-89
2021/04/01 10:39:10;;;;;;;;;;;;;;;;;;5034278;28;19921;-86
2021/04/01 10:41:36;;;;;;;;;;;;;;;;;;5038942;28;20414;-86
2021/04/01 10:44:02;;;;;;;;;;;;;;;;;;5044715;28;19917;-86
2021/04/01 10:46:28;;;;;;;;;;;;;;;;;;5035046;28;19921;-85
2021/04/01 10:48:54;;;;;;;;;;;;;;;;;;5038720;28;19912;-88
2021/04/01 10:51:20;;;;;;;;;;;;;;;;;;5033477;28;20042;-88
2021/04/01 10:53:47;;;;;;;;;;;;;;;;;;5030863;28;20310;-90
2021/04/01 10:56:13;;;;;;;;;;;;;;;;;;5033017;28;20013;-88
2021/04/01 10:58:39;;;;;;;;;;;;;;;;;;5033570;28;20139;-87
2021/04/01 11:01:05;;;;;;;;;;;;;;;;;;5033527;28;20010;-88
2021/04/01 11:03:31;;;;;;;;;;;;;;;;;;5038694;28;19921;-88
2021/04/01 11:05:57;;;;;;;;;;;;;;;;;;5039433;28;19935;-88
2021/04/01 11:08:23;;;;;;;;;;;;;;;;;;5035710;28;19921;-88
2021/04/01 11:10:49;;;;;;;;;;;;;;;;;;5039256;28;19925;-86
2021/04/01 11:13:15;;;;;;;;;;;;;;;;;;5036964;28;19924;-86
2021/04/01 11:15:41;;;;;;;;;;;;;;;;;;5037880;28;20115;-87
2021/04/01 11:18:08;;;;;;;;;;;;;;;;;;5040337;28;19924;-88
2021/04/01 11:20:34;;;;;;;;;;;;;;;;;;5042615;28;19923;-87
2021/04/01 11:23:01;;;;;;;;;;;;;;;;;;5035125;28;20308;-86
2021/04/01 11:25:27;;;;;;;;;;;;;;;;;;5048713;28;19927;-86
2021/04/01 11:27:53;;;;;;;;;;;;;;;;;;5036635;28;21348;-85
2021/04/01 11:30:20;;;;;;;;;;;;;;;;;;5037195;28;21740;-85
2021/04/01 11:33:06;;;;;;;;;;;;;;;;;;5031250;28;20371;-86
2021/04/01 11:35:32;;;;;;;;;;;;;;;;;;5035801;28;19947;-84
2021/04/01 11:37:58;;;;;;;;;;;;;;;;;;5035471;28;19951;-85
2021/04/01 11:40:25;;;;;;;;;;;;;;;;;;5046999;28;20015;-85
2021/04/01 11:42:51;;;;;;;;;;;;;;;;;;5050438;28;21027;-84
2021/04/01 11:45:17;;;;;;;;;;;;;;;;;;5047354;28;19920;-84
2021/04/01 11:47:43;;;;;;;;;;;;;;;;;;5035954;28;19947;-84
2021/04/01 11:50:09;;;;;;;;;;;;;;;;;;5045380;28;20024;-85
2021/04/01 11:52:35;;;;;;;;;;;;;;;;;;5040321;28;19990;-85
2021/04/01 11:55:01;;;;;;;;;;;;;;;;;;5039740;28;19947;-84
2021/04/01 11:57:30;;;;;;;;;;;;;;;;;;5053691;28;19950;-83
2021/04/01 12:00:00;;;;;;;;;;;;;;;;;;5049394;28;19951;-84
2021/04/01 12:02:27;;;;;;;;;;;;;;;;;;5043366;28;19927;-86
2021/04/01 12:04:55;;;;;;;;;;;;;;;;;;5057032;28;20013;-84
2021/04/01 12:07:21;;;;;;;;;;;;;;;;;;5030083;28;19960;-85
2021/04/01 12:09:47;;;;;;;;;;;;;;;;;;5030192;28;20027;-85
2021/04/01 12:12:13;;;;;;;;;;;;;;;;;;5036794;28;19920;-85
2021/04/01 12:14:39;;;;;;;;;;;;;;;;;;5051980;28;19916;-84
2021/04/01 12:17:08;;;;;;;;;;;;;;;;;;5039472;28;19924;-84
2021/04/01 12:19:34;;;;;;;;;;;;;;;;;;5041469;28;20056;-85
2021/04/01 12:22:00;;;;;;;;;;;;;;;;;;5038677;28;20594;-85
2021/04/01 12:24:26;;;;;;;;;;;;;;;;;;5052737;28;19927;-87
2021/04/01 12:26:54;;;;;;;;;;;;;;;;;;5028320;28;19921;-86
2021/04/01 12:29:22;;;;;;;;;;;;;;;;;;5043275;28;20398;-85
2021/04/01 12:31:51;;;;;;;;;;;;;;;;;;5043419;28;21536;-84
2021/04/01 12:34:17;;;;;;;;;;;;;;;;;;5041595;28;20470;-85
2021/04/01 12:36:43;;;;;;;;;;;;;;;;;;5050141;28;19955;-85
2021/04/01 12:39:09;;;;;;;;;;;;;;;;;;5041720;28;19927;-84
2021/04/01 12:41:35;;;;;;;;;;;;;;;;;;5038429;28;20034;-84
2021/04/01 12:44:01;;;;;;;;;;;;;;;;;;5042607;28;19919;-84
2021/04/01 12:46:27;;;;;;;;;;;;;;;;;;5036623;28;19916;-84
2021/04/01 12:48:54;;;;;;;;;;;;;;;;;;5035376;28;20070;-83
2021/04/01 12:51:21;;;;;;;;;;;;;;;;;;5043689;28;19920;-83
2021/04/01 12:53:47;;;;;;;;;;;;;;;;;;5039581;28;20309;-84
2021/04/01 12:56:15;;;;;;;;;;;;;;;;;;5034309;28;19983;-83
2021/04/01 13:01:11;;;;;;;;;;;;;;;;;;5049085;28;19916;-84
2021/04/01 13:03:37;;;;;;;;;;;;;;;;;;5041628;28;19916;-85
2021/04/01 13:06:07;;;;;;;;;;;;;;;;;;5055345;28;19963;-85
2021/04/01 13:11:02;;;;;;;;;;;;;;;;;;5057748;28;19917;-85
2021/04/01 13:13:28;;;;;;;;;;;;;;;;;;5038332;28;19908;-84
2021/04/01 13:15:56;;;;;;;;;;;;;;;;;;5048743;28;21183;-86
2021/04/01 13:18:22;;;;;;;;;;;;;;;;;;5040911;28;19913;-86
2021/04/01 13:20:48;;;;;;;;;;;;;;;;;;5053922;28;19989;-86
2021/04/01 13:23:29;;;;;;;;;;;;;;;;;;5052946;28;19967;-87
2021/04/01 13:25:56;;;;;;;;;;;;;;;;;;5045463;28;20302;-88
2021/04/01 13:28:22;;;;;;;;;;;;;;;;;;5054381;28;19916;-84
2021/04/01 13:30:53;;;;;;;;;;;;;;;;;;5031053;28;20495;-87
2021/04/01 13:33:38;;;;;;;;;;;;;;;;;;5048763;28;20335;-85
2021/04/01 13:36:14;;;;;;;;;;;;;;;;;;5047963;28;20011;-85
2021/04/01 13:38:42;;;;;;;;;;;;;;;;;;5035286;28;19923;-85
2021/04/01 13:41:11;;;;;;;;;;;;;;;;;;5042774;28;20359;-86
2021/04/01 13:43:37;;;;;;;;;;;;;;;;;;5042463;28;19975;-85
2021/04/01 13:46:03;;;;;;;;;;;;;;;;;;5035349;28;19919;-85
2021/04/01 13:48:29;;;;;;;;;;;;;;;;;;5041761;28;19927;-88
2021/04/01 13:51:03;;;;;;;;;;;;;;;;;;5045280;28;20624;-86
2021/04/01 13:56:19;;;;;;;;;;;;;;;;;;5053089;28;19919;-84
2021/04/01 13:59:15;;;;;;;;;;;;;;;;;;5036331;28;19928;-86
2021/04/01 14:09:50;;;;;;;;;;;;;;;;;;5054049;28;20021;-85
2021/04/01 14:12:16;;;;;;;;;;;;;;;;;;5055873;28;20295;-84
2021/04/01 14:14:42;;;;;;;;;;;;;;;;;;5053638;28;19927;-86
2021/04/01 14:17:08;;;;;;;;;;;;;;;;;;5039478;28;19930;-86
2021/04/01 14:19:36;;;;;;;;;;;;;;;;;;5040998;28;19956;-85
2021/04/01 14:22:02;;;;;;;;;;;;;;;;;;5053829;28;19958;-85
2021/04/01 14:24:32;;;;;;;;;;;;;;;;;;5052594;28;19950;-86
2021/04/01 14:27:11;;;;;;;;;;;;;;;;;;5053209;28;19916;-86
2021/04/01 14:29:38;;;;;;;;;;;;;;;;;;5044229;28;19939;-85
2021/04/01 14:32:04;;;;;;;;;;;;;;;;;;5046439;28;20277;-85
2021/04/01 14:34:30;;;;;;;;;;;;;;;;;;5043309;28;19924;-89
2021/04/01 14:36:57;;;;;;;;;;;;;;;;;;5053847;28;19927;-87
2021/04/01 14:39:27;;;;;;;;;;;;;;;;;;5041032;28;19927;-89
2021/04/01 14:42:01;;;;;;;;;;;;;;;;;;5052330;28;20363;-86
2021/04/01 14:44:28;;;;;;;;;;;;;;;;;;5050609;28;19955;-88
2021/04/01 14:46:54;;;;;;;;;;;;;;;;;;5062130;28;20299;-87
2021/04/01 14:49:20;;;;;;;;;;;;;;;;;;5043438;28;19920;-88
2021/04/01 14:51:46;;;;;;;;;;;;;;;;;;5037293;28;20313;-88
2021/04/01 14:54:14;;;;;;;;;;;;;;;;;;5041666;28;19912;-88
2021/04/01 14:56:40;;;;;;;;;;;;;;;;;;5054173;28;19920;-87
2021/04/01 14:59:06;;;;;;;;;;;;;;;;;;5046898;28;20346;-87
2021/04/01 15:01:33;;;;;;;;;;;;;;;;;;5043474;28;19920;-86
2021/04/01 15:03:59;;;;;;;;;;;;;;;;;;5058031;28;20674;-87
2021/04/01 15:06:25;;;;;;;;;;;;;;;;;;5047116;28;20371;-87
2021/04/01 15:08:52;;;;;;;;;;;;;;;;;;5043202;28;19924;-87
2021/04/01 15:11:18;;;;;;;;;;;;;;;;;;5051184;28;19912;-85
2021/04/01 15:13:44;;;;;;;;;;;;;;;;;;5039002;28;19973;-86
2021/04/01 15:16:10;;;;;;;;;;;;;;;;;;5052597;28;19923;-87
2021/04/01 15:18:37;;;;;;;;;;;;;;;;;;5059529;28;19916;-85
2021/04/01 15:21:03;;;;;;;;;;;;;;;;;;5041710;28;19963;-86
2021/04/01 15:23:29;;;;;;;;;;;;;;;;;;5058140;28;20438;-87
2021/04/01 15:25:55;;;;;;;;;;;;;;;;;;5045680;28;20386;-88
2021/04/01 15:28:21;;;;;;;;;;;;;;;;;;5045047;28;19921;-90
2021/04/01 15:30:47;;;;;;;;;;;;;;;;;;5045843;28;19923;-86
2021/04/01 15:33:13;;;;;;;;;;;;;;;;;;5042833;28;20327;-86
2021/04/01 15:35:40;;;;;;;;;;;;;;;;;;5042780;28;19916;-87
2021/04/01 15:38:06;;;;;;;;;;;;;;;;;;5055602;28;19908;-88
2021/04/01 15:40:32;;;;;;;;;;;;;;;;;;5056624;28;20402;-86
2021/04/01 15:42:59;;;;;;;;;;;;;;;;;;5046548;28;19980;-87
2021/04/01 15:45:25;;;;;;;;;;;;;;;;;;5048916;28;19928;-85
2021/04/01 15:47:51;;;;;;;;;;;;;;;;;;5052118;28;19956;-87
2021/04/01 15:50:17;;;;;;;;;;;;;;;;;;5040183;28;19920;-86
2021/04/01 15:52:43;;;;;;;;;;;;;;;;;;5032349;28;19924;-88
2021/04/01 15:55:09;;;;;;;;;;;;;;;;;;5057977;28;19913;-87
2021/04/01 15:57:35;;;;;;;;;;;;;;;;;;5040027;28;19993;-86
2021/04/01 16:00:01;;;;;;;;;;;;;;;;;;5037097;28;20011;-85
2021/04/01 16:02:27;;;;;;;;;;;;;;;;;;5051976;28;19967;-85
2021/04/01 16:04:54;;;;;;;;;;;;;;;;;;5054546;28;20264;-85
2021/04/01 16:07:22;;;;;;;;;;;;;;;;;;5051786;28;20203;-85
2021/04/01 16:09:48;;;;;;;;;;;;;;;;;;5034250;28;20765;-85
2021/04/01 16:12:14;;;;;;;;;;;;;;;;;;5046412;28;19920;-86
2021/04/01 16:14:41;;;;;;;;;;;;;;;;;;5052954;28;19989;-86
2021/04/01 16:17:07;;;;;;;;;;;;;;;;;;5055315;28;19925;-86
2021/04/01 16:19:33;;;;;;;;;;;;;;;;;;5049126;28;20011;-86
2021/04/01 16:21:59;;;;;;;;;;;;;;;;;;5056566;28;19921;-86
2021/04/01 16:24:26;;;;;;;;;;;;;;;;;;5057562;28;19921;-86
2021/04/01 16:26:52;;;;;;;;;;;;;;;;;;5047714;28;21223;-85
2021/04/01 16:29:18;;;;;;;;;;;;;;;;;;5046781;28;19986;-87
2021/04/01 16:31:44;;;;;;;;;;;;;;;;;;5037721;28;19916;-87
2021/04/01 16:34:10;;;;;;;;;;;;;;;;;;5037786;28;20295;-86
2021/04/01 16:36:37;;;;;;;;;;;;;;;;;;5047987;28;19974;-86
2021/04/01 16:39:03;;;;;;;;;;;;;;;;;;5052783;28;19921;-87
2021/04/01 16:41:29;;;;;;;;;;;;;;;;;;5033288;28;20398;-85
2021/04/01 16:43:55;;;;;;;;;;;;;;;;;;5045666;28;19969;-86
2021/04/01 16:46:21;;;;;;;;;;;;;;;;;;5054795;28;19943;-86
2021/04/01 16:48:47;;;;;;;;;;;;;;;;;;5049794;28;19924;-86
2021/04/01 16:51:14;;;;;;;;;;;;;;;;;;5044552;28;21443;-85
2021/04/01 16:53:40;;;;;;;;;;;;;;;;;;5046317;28;19928;-86
2021/04/01 16:56:06;;;;;;;;;;;;;;;;;;5049196;28;19919;-86
2021/04/01 16:58:32;;;;;;;;;;;;;;;;;;5040966;28;19985;-85
2021/04/01 17:00:58;;;;;;;;;;;;;;;;;;5036580;28;19913;-86
2021/04/01 17:03:26;;;;;;;;;;;;;;;;;;5039423;28;19921;-86
2021/04/01 17:05:55;;;;;;;;;;;;;;;;;;5043623;28;19930;-86
2021/04/01 17:08:21;;;;;;;;;;;;;;;;;;5047870;28;19917;-88
2021/04/01 17:10:47;;;;;;;;;;;;;;;;;;5047553;28;19916;-87
2021/04/01 17:13:13;;;;;;;;;;;;;;;;;;5039901;28;19928;-86
2021/04/01 17:15:39;;;;;;;;;;;;;;;;;;5057157;28;19917;-88
2021/04/01 17:18:05;;;;;;;;;;;;;;;;;;5048679;28;19916;-86
2021/04/01 17:20:32;;;;;;;;;;;;;;;;;;5051931;28;19920;-91
2021/04/01 17:22:58;;;;;;;;;;;;;;;;;;5051523;28;19959;-87
2021/04/01 17:25:24;;;;;;;;;;;;;;;;;;5050398;28;19920;-88
2021/04/01 17:27:53;;;;;;;;;;;;;;;;;;5045218;28;19991;-87
2021/04/01 17:30:19;;;;;;;;;;;;;;;;;;5050737;28;19999;-87
2021/04/01 17:32:45;;;;;;;;;;;;;;;;;;5034984;28;20283;-86
2021/04/01 17:35:11;;;;;;;;;;;;;;;;;;5045431;28;19917;-86
2021/04/01 17:37:39;;;;;;;;;;;;;;;;;;5053253;28;19920;-86
2021/04/01 17:40:05;;;;;;;;;;;;;;;;;;5038001;28;19967;-89
2021/04/01 17:42:31;;;;;;;;;;;;;;;;;;5038328;28;20375;-88
2021/04/01 17:44:58;;;;;;;;;;;;;;;;;;5054000;28;19921;-88
2021/04/01 17:47:24;;;;;;;;;;;;;;;;;;5051648;28;20015;-89
2021/04/01 17:49:50;;;;;;;;;;;;;;;;;;5055608;28;19946;-90
2021/04/01 17:52:16;;;;;;;;;;;;;;;;;;5049002;28;20455;-93
2021/04/01 17:54:43;;;;;;;;;;;;;;;;;;5037757;28;19969;-90
2021/04/01 17:57:09;;;;;;;;;;;;;;;;;;5046204;28;19916;-91
2021/04/01 18:02:22;;;;;;;;;;;;;;;;;;5062201;28;20003;-90
2021/04/01 18:05:06;;;;;;;;;;;;;;;;;;5060320;28;19949;-92
2021/04/01 18:26:34;;;;;;;;;;;;;;;;;;5061355;28;19932;-87
2021/04/01 18:29:03;;;;;;;;;;;;;;;;;;5038493;28;19975;-87
2021/04/01 18:31:38;;;;;;;;;;;;;;;;;;5047669;28;19917;-90
2021/04/01 18:37:09;;;;;;;;;;;;;;;;;;5056882;28;19924;-89
2021/04/01 18:39:39;;;;;;;;;;;;;;;;;;;;;
2021/04/01 18:42:09;;;;;;;;;;;;;;;;;;;;;
2021/04/01 18:44:33;;;;;;;;;;;;;;;;;;5056979;28;19970;-87
2021/04/01 18:47:23;;;;;;;;;;;;;;;;;;;;;
2021/04/01 18:49:41;;;;;;;;;;;;;;;;;;5053230;28;20435;-88
2021/04/01 18:52:11;;;;;;;;;;;;;;;;;;5050275;28;19975;-88
2021/04/01 18:57:13;;;;;;;;;;;;;;;;;;5055510;28;20007;-88
2021/04/01 18:59:43;;;;;;;;;;;;;;;;;;5055491;28;20819;-91
2021/04/01 19:02:14;;;;;;;;;;;;;;;;;;5052739;28;19962;-88
2021/04/01 19:04:43;;;;;;;;;;;;;;;;;;5040467;28;19917;-90
2021/04/01 19:13:21;;;;;;;;;;;;;;;;;;;;;
2021/04/01 19:23:35;;;;;;;;;;;;;;;;;;5025162;28;19924;-90
2021/04/01 19:26:01;;;;;;;;;;;;;;;;;;5048837;28;19978;-89
2021/04/01 19:28:27;;;;;;;;;;;;;;;;;;5051768;28;19921;-91
2021/04/01 19:30:53;;;;;;;;;;;;;;;;;;5052177;28;20371;-88
2021/04/01 19:33:20;;;;;;;;;;;;;;;;;;5041691;28;19921;-88
2021/04/01 19:35:46;;;;;;;;;;;;;;;;;;5048126;28;19916;-89
2021/04/01 19:38:12;;;;;;;;;;;;;;;;;;5038368;28;19920;-88
2021/04/01 19:40:38;;;;;;;;;;;;;;;;;;5048130;28;19924;-89
2021/04/01 19:43:06;;;;;;;;;;;;;;;;;;5058477;28;20023;-89
2021/04/01 19:45:32;;;;;;;;;;;;;;;;;;5048358;28;20393;-89
2021/04/01 19:47:58;;;;;;;;;;;;;;;;;;5049507;28;19923;-90
2021/04/01 19:50:24;;;;;;;;;;;;;;;;;;5049042;28;20458;-89
2021/04/01 19:52:51;;;;;;;;;;;;;;;;;;5054099;28;19912;-88
2021/04/01 19:55:17;;;;;;;;;;;;;;;;;;5052122;28;20283;-88
2021/04/01 19:57:43;;;;;;;;;;;;;;;;;;5049846;28;20015;-89
2021/04/01 20:00:09;;;;;;;;;;;;;;;;;;5041828;28;19917;-89
2021/04/01 20:02:38;;;;;;;;;;;;;;;;;;5044097;28;19916;-89
2021/04/01 20:05:21;;;;;;;;;;;;;;;;;;5059305;28;19921;-89
2021/04/01 20:07:47;;;;;;;;;;;;;;;;;;5049254;28;19920;-89
2021/04/01 20:10:13;;;;;;;;;;;;;;;;;;5044987;28;19927;-89
2021/04/01 20:12:42;;;;;;;;;;;;;;;;;;5037657;28;19931;-89
2021/04/01 20:15:08;;;;;;;;;;;;;;;;;;5047736;28;20385;-90
2021/04/01 20:17:34;;;;;;;;;;;;;;;;;;5048333;28;20008;-90
2021/04/01 20:20:00;;;;;;;;;;;;;;;;;;5042988;28;20741;-89
2021/04/01 20:22:26;;;;;;;;;;;;;;;;;;5054080;28;19927;-91
2021/04/01 20:24:53;;;;;;;;;;;;;;;;;;5051000;28;19917;-89
2021/04/01 20:27:22;;;;;;;;;;;;;;;;;;5049353;28;20566;-87
2021/04/01 20:29:51;;;;;;;;;;;;;;;;;;5038763;28;19975;-89
2021/04/01 20:32:17;;;;;;;;;;;;;;;;;;5040075;28;19920;-89
2021/04/01 20:34:43;;;;;;;;;;;;;;;;;;5055133;28;19979;-89
2021/04/01 20:37:11;;;;;;;;;;;;;;;;;;5058777;28;19970;-89
2021/04/01 20:39:37;;;;;;;;;;;;;;;;;;5057952;28;19950;-90
2021/04/01 20:42:03;;;;;;;;;;;;;;;;;;5042177;28;19912;-89
2021/04/01 20:44:29;;;;;;;;;;;;;;;;;;5054519;28;19944;-91
2021/04/01 20:46:55;;;;;;;;;;;;;;;;;;5051791;28;19951;-90
2021/04/01 20:49:22;;;;;;;;;;;;;;;;;;5050664;28;19924;-91
2021/04/01 20:51:48;;;;;;;;;;;;;;;;;;5057981;28;19916;-91
2021/04/01 20:54:14;;;;;;;;;;;;;;;;;;5053742;28;19920;-91
2021/04/01 20:56:40;;;;;;;;;;;;;;;;;;5054634;28;20271;-91
2021/04/01 20:59:07;;;;;;;;;;;;;;;;;;5061576;28;19908;-91
2021/04/01 21:01:33;;;;;;;;;;;;;;;;;;5048486;28;19992;-91
2021/04/01 21:03:59;;;;;;;;;;;;;;;;;;5050523;28;19916;-91
2021/04/01 21:06:25;;;;;;;;;;;;;;;;;;5051566;28;20855;-91
2021/04/01 21:08:52;;;;;;;;;;;;;;;;;;5040003;28;19960;-90
2021/04/01 21:11:18;;;;;;;;;;;;;;;;;;5050663;28;19916;-90
2021/04/01 21:13:44;;;;;;;;;;;;;;;;;;5046816;28;19917;-90
2021/04/01 21:16:11;;;;;;;;;;;;;;;;;;5051986;28;20267;-90
2021/04/01 21:18:38;;;;;;;;;;;;;;;;;;5057701;28;19920;-90
2021/04/01 21:21:04;;;;;;;;;;;;;;;;;;5062163;28;19916;-90
2021/04/01 21:23:30;;;;;;;;;;;;;;;;;;5047999;28;19920;-89
2021/04/01 21:25:58;;;;;;;;;;;;;;;;;;5062876;28;19919;-90
2021/04/01 21:28:25;;;;;;;;;;;;;;;;;;5053939;28;21246;-90
2021/04/01 21:30:51;;;;;;;;;;;;;;;;;;5051291;28;20355;-90
2021/04/01 21:33:17;;;;;;;;;;;;;;;;;;5046027;28;19917;-90
2021/04/01 21:35:43;;;;;;;;;;;;;;;;;;5038788;28;19916;-90
2021/04/01 21:38:09;;;;;;;;;;;;;;;;;;5051164;28;20352;-91
2021/04/01 21:40:35;;;;;;;;;;;;;;;;;;5052117;28;19987;-90
2021/04/01 21:43:01;;;;;;;;;;;;;;;;;;5052087;28;19912;-91
2021/04/01 21:45:27;;;;;;;;;;;;;;;;;;5055852;28;19963;-90
2021/04/01 21:47:53;;;;;;;;;;;;;;;;;;5039182;28;20003;-90
2021/04/01 21:50:19;;;;;;;;;;;;;;;;;;5049175;28;20311;-90
2021/04/01 21:52:45;;;;;;;;;;;;;;;;;;5060042;28;19912;-90
2021/04/01 21:55:11;;;;;;;;;;;;;;;;;;5041875;28;19983;-90
2021/04/01 21:57:38;;;;;;;;;;;;;;;;;;5058733;28;19913;-90
2021/04/01 22:00:04;;;;;;;;;;;;;;;;;;5048573;28;19924;-90
2021/04/01 22:02:30;;;;;;;;;;;;;;;;;;5048863;28;20448;-91
2021/04/01 22:04:56;;;;;;;;;;;;;;;;;;5043326;28;19916;-90
2021/04/01 22:07:22;;;;;;;;;;;;;;;;;;5055041;28;19923;-91
2021/04/01 22:09:48;;;;;;;;;;;;;;;;;;5044644;28;20515;-90
2021/04/01 22:12:14;;;;;;;;;;;;;;;;;;5062906;28;19917;-90
2021/04/01 22:14:40;;;;;;;;;;;;;;;;;;5038819;28;20260;-90
2021/04/01 22:17:06;;;;;;;;;;;;;;;;;;5043763;28;19924;-90
2021/04/01 22:19:32;;;;;;;;;;;;;;;;;;5055896;28;19948;-91
2021/04/01 22:21:58;;;;;;;;;;;;;;;;;;5054034;28;19921;-90
2021/04/01 22:24:24;;;;;;;;;;;;;;;;;;5042745;28;20537;-90
2021/04/01 22:26:50;;;;;;;;;;;;;;;;;;5050080;28;19971;-90
2021/04/01 22:29:16;;;;;;;;;;;;;;;;;;5041640;28;20323;-90
2021/04/01 22:31:42;;;;;;;;;;;;;;;;;;5041547;28;19956;-90
2021/04/01 22:34:09;;;;;;;;;;;;;;;;;;5051654;28;19916;-90
2021/04/01 22:36:35;;;;;;;;;;;;;;;;;;5041586;28;19947;-90
2021/04/01 22:39:01;;;;;;;;;;;;;;;;;;5047723;28;19956;-91
2021/04/01 22:41:27;;;;;;;;;;;;;;;;;;5035280;28;19995;-90
2021/04/01 22:43:53;;;;;;;;;;;;;;;;;;5042029;28;19913;-90
2021/04/01 22:46:19;;;;;;;;;;;;;;;;;;5040015;28;19994;-90
2021/04/01 22:48:46;;;;;;;;;;;;;;;;;;5044075;28;20367;-90
2021/04/01 22:51:12;;;;;;;;;;;;;;;;;;5040546;28;19921;-90
2021/04/01 22:53:39;;;;;;;;;;;;;;;;;;5037787;28;19924;-90
2021/04/01 22:56:05;;;;;;;;;;;;;;;;;;5037065;28;19920;-90
2021/04/01 22:58:31;;;;;;;;;;;;;;;;;;5035718;28;20572;-90
2021/04/01 23:00:57;;;;;;;;;;;;;;;;;;5032859;28;19912;-90
2021/04/01 23:03:24;;;;;;;;;;;;;;;;;;5039007;28;19927;-90
2021/04/01 23:05:50;;;;;;;;;;;;;;;;;;5040908;28;19916;-90
2021/04/01 23:08:16;;;;;;;;;;;;;;;;;;5039801;28;19913;-89
2021/04/01 23:10:42;;;;;;;;;;;;;;;;;;5053165;28;19916;-91
2021/04/01 23:13:10;;;;;;;;;;;;;;;;;;5038636;28;19917;-90
2021/04/01 23:15:36;;;;;;;;;;;;;;;;;;5040185;28;20288;-90
2021/04/01 23:18:02;;;;;;;;;;;;;;;;;;5037082;28;19917;-90
2021/04/01 23:20:28;;;;;;;;;;;;;;;;;;5034289;28;19917;-90